AQQ10 IFIS: Internet Flight Information System
logo dgac
Viernes 12 de Abril del 2024
Buscar por aerodromo o helipuerto
Ingrese nombre de aeródromo, localidad o designador OACI:
METAR del 12-04-2024 a las 00:00 UTC
Para mayor información visite www.meteochile.gob.cl
METAR SCFM 120000Z 25011KT 9999 FEW040 SCT200 07/02 Q1017
Viento: dirección 250 grados, velocidad 11 nudos
Visibilidad: 10 km o más
Nubes: Escasa nubosidad a 4000 pies sobre el nivel del aeródromo
Nubes: Nubosidad parcial a 20000 pies sobre el nivel del aeródromo
Temperatura: 7 °C
Rocío: 2 °C
Humedad_relativa: 70%
Presión: 1017 hPa
METAR del 11-04-2024 a las 23:00 UTC
Para mayor información visite www.meteochile.gob.cl
METAR SCFM 112300Z 28011KT 9999 FEW040 SCT200 07/03 Q1017
Viento: dirección 280 grados, velocidad 11 nudos
Visibilidad: 10 km o más
Nubes: Escasa nubosidad a 4000 pies sobre el nivel del aeródromo
Nubes: Nubosidad parcial a 20000 pies sobre el nivel del aeródromo
Temperatura: 7 °C
Rocío: 3 °C
Humedad_relativa: 76%
Presión: 1017 hPa
METAR del 11-04-2024 a las 20:00 UTC
Para mayor información visite www.meteochile.gob.cl
METAR SCFM 112000Z 26011KT CAVOK 10/02 Q1017
Viento: dirección 260 grados, velocidad 11 nudos
Visibilidad: 10 km o más,
    sin nubes bajo los 5.000 pies o bajo del MSA (Mínimo de Seguridad del Aeródromo),
    sin cumulonimbus, y sin fenómenos de tiempo significativo en el aeródromo o alrededores
Temperatura: 10 °C
Rocío: 2 °C
Humedad_relativa: 58%
Presión: 1017 hPa
METAR del 11-04-2024 a las 19:00 UTC
Para mayor información visite www.meteochile.gob.cl
METAR SCFM 111900Z 27014KT CAVOK 11/03 Q1017
Viento: dirección 270 grados, velocidad 14 nudos
Visibilidad: 10 km o más,
    sin nubes bajo los 5.000 pies o bajo del MSA (Mínimo de Seguridad del Aeródromo),
    sin cumulonimbus, y sin fenómenos de tiempo significativo en el aeródromo o alrededores
Temperatura: 11 °C
Rocío: 3 °C
Humedad_relativa: 58%
Presión: 1017 hPa
METAR del 11-04-2024 a las 18:00 UTC
Para mayor información visite www.meteochile.gob.cl
METAR SCFM 111800Z 26009KT 9999 FEW030 10/02 Q1018
Viento: dirección 260 grados, velocidad 9 nudos
Visibilidad: 10 km o más
Nubes: Escasa nubosidad a 3000 pies sobre el nivel del aeródromo
Temperatura: 10 °C
Rocío: 2 °C
Humedad_relativa: 58%
Presión: 1018 hPa
METAR del 11-04-2024 a las 17:00 UTC
Para mayor información visite www.meteochile.gob.cl
METAR SCFM 111700Z 27009KT 9999 FEW030 10/02 Q1018
Viento: dirección 270 grados, velocidad 9 nudos
Visibilidad: 10 km o más
Nubes: Escasa nubosidad a 3000 pies sobre el nivel del aeródromo
Temperatura: 10 °C
Rocío: 2 °C
Humedad_relativa: 58%
Presión: 1018 hPa
METAR del 11-04-2024 a las 16:00 UTC
Para mayor información visite www.meteochile.gob.cl
METAR SCFM 111600Z 26008KT 9999 FEW030 09/02 Q1019
Viento: dirección 260 grados, velocidad 8 nudos
Visibilidad: 10 km o más
Nubes: Escasa nubosidad a 3000 pies sobre el nivel del aeródromo
Temperatura: 9 °C
Rocío: 2 °C
Humedad_relativa: 62%
Presión: 1019 hPa
METAR del 11-04-2024 a las 15:00 UTC
Para mayor información visite www.meteochile.gob.cl
METAR SCFM 111500Z 26010KT 9999 FEW030 08/02 Q1019
Viento: dirección 260 grados, velocidad 10 nudos
Visibilidad: 10 km o más
Nubes: Escasa nubosidad a 3000 pies sobre el nivel del aeródromo
Temperatura: 8 °C
Rocío: 2 °C
Humedad_relativa: 66%
Presión: 1019 hPa
METAR del 11-04-2024 a las 14:00 UTC
Para mayor información visite www.meteochile.gob.cl
METAR SCFM 111400Z 27011KT 9999 FEW020 07/03 Q1020
Viento: dirección 270 grados, velocidad 11 nudos
Visibilidad: 10 km o más
Nubes: Escasa nubosidad a 2000 pies sobre el nivel del aeródromo
Temperatura: 7 °C
Rocío: 3 °C
Humedad_relativa: 76%
Presión: 1020 hPa
METAR del 11-04-2024 a las 13:00 UTC
Para mayor información visite www.meteochile.gob.cl
METAR SCFM 111300Z 27009KT 9999 FEW020 SCT200 06/03 Q1020
Viento: dirección 270 grados, velocidad 9 nudos
Visibilidad: 10 km o más
Nubes: Escasa nubosidad a 2000 pies sobre el nivel del aeródromo
Nubes: Nubosidad parcial a 20000 pies sobre el nivel del aeródromo
Temperatura: 6 °C
Rocío: 3 °C
Humedad_relativa: 81%
Presión: 1020 hPa